Time;durP1;ratioP1;P1;durP2;ratioP2;P2;SDS_P1;SDS_P2;PMS_P1;PMS_P2;Temp;Humidity;BMP_temperature;BMP_pressure;BME280_temperature;BME280_humidity;BME280_pressure;Samples;Min_cycle;Max_cycle;Signal;HPM_P1;HPM_P2
2022/03/02 00:00:34;;;;;;;31.50;24.30;;;6.20;99.90;;;;;;5054711;28;20481;-81
2022/03/02 00:03:00;;;;;;;32.63;25.60;;;6.20;99.90;;;;;;5055865;28;20049;-81
2022/03/02 00:05:27;;;;;;;30.73;24.60;;;6.20;99.90;;;;;;5054272;28;20079;-81
2022/03/02 00:07:54;;;;;;;35.47;25.80;;;6.20;99.90;;;;;;5055930;28;20045;-81
2022/03/02 00:10:20;;;;;;;32.05;25.45;;;6.30;99.90;;;;;;5055289;28;20053;-81
2022/03/02 00:12:45;;;;;;;37.22;25.30;;;6.20;99.90;;;;;;5054356;28;20056;-82
2022/03/02 00:15:11;;;;;;;35.15;26.52;;;6.30;99.90;;;;;;5055551;28;20045;-82
2022/03/02 00:17:37;;;;;;;32.97;26.30;;;6.20;99.90;;;;;;5055621;28;20485;-81
2022/03/02 00:20:04;;;;;;;30.73;24.58;;;6.20;99.90;;;;;;5055536;28;20045;-81
2022/03/02 00:22:29;;;;;;;33.70;25.50;;;6.30;99.90;;;;;;5054010;28;20051;-81
2022/03/02 00:24:55;;;;;;;37.00;27.35;;;6.20;99.90;;;;;;5055334;28;20048;-81
2022/03/02 00:27:23;;;;;;;32.13;26.10;;;6.10;99.90;;;;;;5055181;28;20057;-81
2022/03/02 00:29:49;;;;;;;32.53;26.25;;;6.30;99.90;;;;;;5055353;28;20060;-81
2022/03/02 00:32:14;;;;;;;34.55;25.70;;;6.20;99.90;;;;;;5036011;28;20045;-81
2022/03/02 00:34:40;;;;;;;33.85;25.48;;;6.10;99.90;;;;;;5054169;28;20078;-81
2022/03/02 00:37:06;;;;;;;31.92;25.83;;;6.10;99.90;;;;;;5055174;28;20052;-82
2022/03/02 00:39:32;;;;;;;32.22;26.05;;;6.20;99.90;;;;;;5037298;28;20397;-82
2022/03/02 00:41:58;;;;;;;34.90;25.40;;;6.10;99.90;;;;;;5055337;28;20052;-81
2022/03/02 00:44:24;;;;;;;35.03;25.13;;;6.10;99.90;;;;;;5054778;28;20439;-82
2022/03/02 00:46:50;;;;;;;34.63;26.02;;;6.10;99.90;;;;;;5037818;28;20057;-81
2022/03/02 00:49:16;;;;;;;33.22;25.33;;;6.10;99.90;;;;;;5074416;28;20102;-82
2022/03/02 00:51:42;;;;;;;34.13;26.05;;;6.10;99.90;;;;;;5073821;28;20052;-81
2022/03/02 00:54:08;;;;;;;34.13;26.30;;;6.10;99.90;;;;;;5072772;28;20100;-81
2022/03/02 00:56:34;;;;;;;34.38;26.83;;;6.10;99.90;;;;;;5079242;28;20029;-81
2022/03/02 00:58:59;;;;;;;31.83;25.35;;;6.20;99.90;;;;;;5062728;28;20113;-82
2022/03/02 01:01:25;;;;;;;35.67;25.95;;;6.20;99.90;;;;;;5059067;28;20072;-81
2022/03/02 01:03:50;;;;;;;33.85;26.45;;;6.20;99.90;;;;;;5052475;28;20048;-81
2022/03/02 01:06:17;;;;;;;32.28;26.42;;;6.10;99.90;;;;;;5044775;28;20367;-81
2022/03/02 01:08:42;;;;;;;34.03;26.20;;;6.20;99.90;;;;;;5051512;28;20408;-81
2022/03/02 01:11:08;;;;;;;33.60;25.85;;;6.10;99.90;;;;;;5039591;28;20037;-81
2022/03/02 01:13:34;;;;;;;32.08;25.45;;;6.20;99.90;;;;;;5044328;28;20081;-81
2022/03/02 01:15:59;;;;;;;33.35;26.02;;;6.10;99.90;;;;;;5044949;28;20072;-81
2022/03/02 01:18:25;;;;;;;34.03;26.50;;;6.20;99.90;;;;;;5041729;28;20045;-81
2022/03/02 01:20:51;;;;;;;35.28;26.10;;;6.10;99.90;;;;;;5035771;28;20128;-81
2022/03/02 01:23:16;;;;;;;36.17;26.17;;;6.10;99.90;;;;;;5047845;28;20041;-81
2022/03/02 01:25:42;;;;;;;33.08;25.15;;;6.10;99.90;;;;;;5043367;28;20045;-81
2022/03/02 01:28:08;;;;;;;34.88;26.48;;;6.10;99.90;;;;;;5040714;28;20050;-81
2022/03/02 01:30:33;;;;;;;38.50;25.83;;;6.10;99.90;;;;;;5050632;28;20076;-80
2022/03/02 01:32:59;;;;;;;35.92;26.85;;;6.20;99.90;;;;;;5053727;28;20052;-81
2022/03/02 01:35:25;;;;;;;36.42;26.23;;;6.10;99.90;;;;;;5052260;28;20434;-82
2022/03/02 01:37:50;;;;;;;34.00;26.27;;;6.10;99.90;;;;;;5054154;28;20133;-81
2022/03/02 01:40:16;;;;;;;34.78;25.85;;;6.10;99.90;;;;;;5052992;28;20048;-81
2022/03/02 01:42:42;;;;;;;35.95;26.25;;;6.10;99.90;;;;;;5053257;28;20053;-81
2022/03/02 01:45:09;;;;;;;33.80;25.70;;;6.10;99.90;;;;;;5036484;28;20469;-81
2022/03/02 01:47:34;;;;;;;37.30;26.23;;;6.00;99.90;;;;;;5053566;28;20370;-81
2022/03/02 01:50:00;;;;;;;34.50;25.85;;;6.00;99.90;;;;;;5052599;28;20055;-81
2022/03/02 01:52:26;;;;;;;36.50;26.30;;;6.00;99.90;;;;;;5053519;28;20503;-81
2022/03/02 01:54:52;;;;;;;35.10;26.20;;;6.00;99.90;;;;;;5052606;28;20123;-81
2022/03/02 01:57:17;;;;;;;36.80;26.45;;;6.10;99.90;;;;;;5052746;28;20048;-81
2022/03/02 01:59:43;;;;;;;34.65;26.20;;;6.00;99.90;;;;;;5053431;28;20447;-81
2022/03/02 02:02:09;;;;;;;37.88;26.67;;;6.00;99.90;;;;;;5052465;28;20497;-81
2022/03/02 02:04:35;;;;;;;37.92;27.42;;;6.00;99.90;;;;;;5051991;28;20088;-81
2022/03/02 02:07:00;;;;;;;37.17;28.02;;;6.00;99.90;;;;;;5053581;28;20084;-82
2022/03/02 02:09:26;;;;;;;37.70;27.90;;;6.10;99.90;;;;;;5052082;28;20037;-82
2022/03/02 02:11:51;;;;;;;36.58;27.85;;;6.00;99.90;;;;;;5053408;28;20032;-81
2022/03/02 02:14:17;;;;;;;35.75;26.98;;;6.00;99.90;;;;;;5053369;28;20091;-81
2022/03/02 02:16:43;;;;;;;39.47;28.90;;;5.90;99.90;;;;;;5051796;28;20052;-81
2022/03/02 02:19:10;;;;;;;40.47;28.70;;;6.00;99.90;;;;;;5053667;28;20069;-81
2022/03/02 02:21:35;;;;;;;35.80;27.33;;;6.00;99.90;;;;;;5053498;28;20051;-81
2022/03/02 02:24:01;;;;;;;37.47;28.30;;;6.00;99.90;;;;;;5066849;28;20049;-81
2022/03/02 02:26:27;;;;;;;37.00;27.80;;;6.00;99.90;;;;;;5055115;28;20041;-80
2022/03/02 02:28:53;;;;;;;38.17;28.63;;;6.00;99.90;;;;;;5068271;28;20142;-82
2022/03/02 02:31:18;;;;;;;38.10;28.70;;;6.10;99.90;;;;;;5060817;28;20059;-81
2022/03/02 02:33:44;;;;;;;38.10;29.17;;;6.00;99.90;;;;;;5077053;28;20048;-82
2022/03/02 02:36:11;;;;;;;36.88;27.95;;;6.00;99.90;;;;;;5077215;28;20080;-82
2022/03/02 02:38:37;;;;;;;41.53;30.13;;;6.00;99.90;;;;;;5066668;28;20049;-82
2022/03/02 02:41:02;;;;;;;37.72;29.25;;;6.00;99.90;;;;;;5054719;28;20123;-82
2022/03/02 02:43:28;;;;;;;37.47;28.85;;;6.00;99.90;;;;;;5054213;28;20057;-81
2022/03/02 02:45:54;;;;;;;40.42;30.08;;;5.90;99.90;;;;;;5035946;28;20048;-81
2022/03/02 02:48:19;;;;;;;38.90;30.05;;;5.90;99.90;;;;;;5053436;28;20044;-82
2022/03/02 02:50:45;;;;;;;42.72;31.08;;;5.90;99.90;;;;;;5035666;28;20041;-82
2022/03/02 02:53:11;;;;;;;40.13;29.40;;;5.90;99.90;;;;;;5053428;28;20044;-82
2022/03/02 02:55:37;;;;;;;42.17;30.70;;;5.90;99.90;;;;;;5034470;28;20135;-81
2022/03/02 02:58:03;;;;;;;42.08;31.10;;;5.90;99.90;;;;;;5053218;28;20051;-82
2022/03/02 03:00:31;;;;;;;40.88;29.92;;;5.90;99.90;;;;;;5053121;28;20455;-82
2022/03/02 03:02:57;;;;;;;42.35;30.77;;;5.90;99.90;;;;;;5051316;28;20063;-82
2022/03/02 03:05:24;;;;;;;44.05;31.90;;;5.80;99.90;;;;;;5051756;28;20041;-82
2022/03/02 03:07:49;;;;;;;42.85;30.92;;;5.90;99.90;;;;;;5052650;28;20048;-82
2022/03/02 03:10:15;;;;;;;40.97;30.42;;;5.80;99.90;;;;;;5035031;28;20048;-82
2022/03/02 03:12:44;;;;;;;43.30;31.42;;;5.80;99.90;;;;;;5051603;28;20044;-82
2022/03/02 03:15:11;;;;;;;40.25;30.13;;;5.80;99.90;;;;;;5052820;28;20102;-82
2022/03/02 03:17:37;;;;;;;43.10;30.85;;;5.70;99.90;;;;;;5034528;28;20053;-82
2022/03/02 03:20:07;;;;;;;40.83;30.95;;;5.60;99.90;;;;;;5051426;28;20079;-82
2022/03/02 03:22:33;;;;;;;43.28;31.52;;;5.60;99.90;;;;;;5051405;28;20067;-82
2022/03/02 03:24:59;;;;;;;40.20;31.80;;;5.60;99.90;;;;;;5051049;28;20041;-82
2022/03/02 03:27:24;;;;;;;44.70;31.98;;;5.60;99.90;;;;;;5051201;28;20050;-82
2022/03/02 03:29:50;;;;;;;44.38;31.45;;;5.50;99.90;;;;;;5050085;28;20094;-82
2022/03/02 03:32:16;;;;;;;42.10;30.90;;;5.50;99.90;;;;;;5047652;28;20127;-82
2022/03/02 03:34:41;;;;;;;44.45;32.03;;;5.40;99.90;;;;;;5049506;28;20150;-82
2022/03/02 03:37:08;;;;;;;43.22;31.85;;;5.30;99.90;;;;;;5044216;28;20041;-82
2022/03/02 03:39:33;;;;;;;41.83;31.92;;;5.20;99.90;;;;;;5043553;28;20183;-82
2022/03/02 03:41:59;;;;;;;43.75;31.75;;;5.20;99.90;;;;;;5031515;28;20129;-81
2022/03/02 03:44:25;;;;;;;41.63;31.23;;;5.10;99.90;;;;;;5046817;28;20056;-82
2022/03/02 03:46:50;;;;;;;46.80;31.85;;;5.10;99.90;;;;;;5035295;28;20041;-82
2022/03/02 03:49:16;;;;;;;43.72;31.77;;;5.10;99.90;;;;;;5051870;28;20428;-82
2022/03/02 03:51:42;;;;;;;43.88;32.20;;;5.00;99.90;;;;;;5041887;28;20041;-82
2022/03/02 03:54:08;;;;;;;44.80;32.13;;;5.00;99.90;;;;;;5035229;28;20095;-82
2022/03/02 03:56:34;;;;;;;44.60;30.35;;;5.00;99.90;;;;;;5051622;28;20049;-82
2022/03/02 03:59:00;;;;;;;44.00;32.88;;;4.90;99.90;;;;;;5048531;28;20053;-81
2022/03/02 04:01:26;;;;;;;43.05;31.40;;;4.80;99.90;;;;;;5068461;28;20036;-82
2022/03/02 04:03:51;;;;;;;42.55;31.25;;;4.90;99.90;;;;;;5075606;28;20071;-82
2022/03/02 04:06:17;;;;;;;41.65;31.38;;;4.80;99.90;;;;;;5078707;28;20025;-81
2022/03/02 04:08:43;;;;;;;43.03;30.77;;;4.70;99.90;;;;;;5068129;28;20049;-81
2022/03/02 04:11:09;;;;;;;44.00;31.80;;;4.70;99.90;;;;;;5054568;28;20086;-81
2022/03/02 04:13:35;;;;;;;40.75;30.65;;;4.60;99.90;;;;;;5055588;28;20124;-81
2022/03/02 04:16:00;;;;;;;38.83;29.75;;;4.60;99.90;;;;;;5055177;28;20055;-81
2022/03/02 04:18:26;;;;;;;39.78;30.58;;;4.60;99.90;;;;;;5054200;28;20045;-81
2022/03/02 04:20:52;;;;;;;43.53;31.48;;;4.60;99.90;;;;;;5055403;28;20077;-81
2022/03/02 04:23:19;;;;;;;44.58;32.13;;;4.50;99.90;;;;;;5055671;28;20124;-81
2022/03/02 04:25:44;;;;;;;40.47;30.30;;;4.40;99.90;;;;;;5053888;28;20123;-81
2022/03/02 04:28:10;;;;;;;44.10;30.67;;;4.40;99.90;;;;;;5054348;28;20132;-81
2022/03/02 04:30:36;;;;;;;42.97;31.10;;;4.30;99.90;;;;;;5037373;28;20037;-81
2022/03/02 04:33:02;;;;;;;42.33;31.23;;;4.30;99.90;;;;;;5053680;28;20056;-81
2022/03/02 04:35:27;;;;;;;44.30;31.70;;;4.20;99.90;;;;;;5055145;28;20041;-81
2022/03/02 04:37:53;;;;;;;45.00;32.22;;;4.20;99.90;;;;;;5053905;28;20052;-81
2022/03/02 04:40:19;;;;;;;45.22;32.75;;;4.20;99.90;;;;;;5054067;28;20045;-80
2022/03/02 04:42:45;;;;;;;44.97;31.48;;;4.10;99.90;;;;;;5037472;28;20393;-81
2022/03/02 04:45:10;;;;;;;43.03;30.98;;;4.10;99.90;;;;;;5055134;28;20113;-81
2022/03/02 04:47:36;;;;;;;46.35;33.33;;;4.00;99.90;;;;;;5053881;28;20080;-81
2022/03/02 04:50:03;;;;;;;46.00;31.90;;;4.00;99.90;;;;;;5036963;28;20049;-81
2022/03/02 04:52:29;;;;;;;46.10;31.98;;;4.00;99.90;;;;;;5053641;28;20500;-80
2022/03/02 04:55:06;;;;;;;48.10;33.15;;;4.00;99.90;;;;;;5053558;28;20053;-80
2022/03/02 04:57:46;;;;;;;46.10;32.60;;;4.00;99.90;;;;;;5055117;28;20052;-81
2022/03/02 05:00:16;;;;;;;45.45;32.65;;;3.90;99.90;;;;;;5054944;28;20048;-81
2022/03/02 05:02:42;;;;;;;48.13;32.50;;;3.90;99.90;;;;;;5055061;28;20447;-81
2022/03/02 05:05:09;;;;;;;49.42;33.83;;;3.90;99.90;;;;;;5053670;28;20060;-81
2022/03/02 05:07:35;;;;;;;48.08;33.45;;;3.90;99.90;;;;;;5053466;28;20041;-80
2022/03/02 05:10:04;;;;;;;49.53;34.25;;;3.90;99.90;;;;;;5054472;28;20049;-81
2022/03/02 05:12:29;;;;;;;48.63;32.67;;;4.00;99.90;;;;;;5037267;28;20051;-81
2022/03/02 05:14:55;;;;;;;47.80;33.05;;;3.90;99.90;;;;;;5053186;28;20060;-81
2022/03/02 05:17:21;;;;;;;52.92;34.10;;;3.80;99.90;;;;;;5035645;28;20052;-81
2022/03/02 05:19:46;;;;;;;48.20;33.25;;;3.90;99.90;;;;;;5054783;28;20045;-81
2022/03/02 05:22:12;;;;;;;49.13;33.97;;;3.90;99.90;;;;;;5037583;28;20045;-81
2022/03/02 05:24:38;;;;;;;46.10;33.22;;;3.80;99.90;;;;;;5073855;28;20037;-81
2022/03/02 05:27:05;;;;;;;46.15;33.10;;;3.80;99.90;;;;;;5070711;28;20041;-82
2022/03/02 05:29:30;;;;;;;46.92;33.25;;;3.70;99.90;;;;;;5074058;28;20033;-82
2022/03/02 05:31:56;;;;;;;49.33;35.17;;;3.70;99.90;;;;;;5078451;28;20024;-83
2022/03/02 05:34:22;;;;;;;49.00;33.25;;;3.70;99.90;;;;;;5074155;28;20056;-80
2022/03/02 05:36:47;;;;;;;49.90;32.63;;;3.70;99.90;;;;;;5054639;28;20048;-80
2022/03/02 05:39:13;;;;;;;48.78;33.85;;;3.70;99.90;;;;;;5052497;28;20044;-80
2022/03/02 05:41:39;;;;;;;47.95;33.95;;;3.60;99.90;;;;;;5054025;28;20051;-80
2022/03/02 05:44:05;;;;;;;49.25;34.05;;;3.60;99.90;;;;;;5053573;28;20128;-81
2022/03/02 05:46:31;;;;;;;50.35;34.17;;;3.60;99.90;;;;;;5054037;28;20045;-81
2022/03/02 05:48:57;;;;;;;48.53;33.30;;;3.50;99.90;;;;;;5053449;28;20045;-83
2022/03/02 05:51:23;;;;;;;51.72;34.50;;;3.50;99.90;;;;;;5052635;28;20044;-84
2022/03/02 05:53:48;;;;;;;48.40;34.00;;;3.50;99.90;;;;;;5052566;28;20461;-85
2022/03/02 05:56:15;;;;;;;49.67;32.90;;;3.60;99.90;;;;;;5053443;28;20045;-84
2022/03/02 05:58:40;;;;;;;48.35;33.50;;;3.50;99.90;;;;;;5036134;28;20401;-84
2022/03/02 06:01:06;;;;;;;48.88;33.17;;;3.50;99.90;;;;;;5040757;28;20049;-86
2022/03/02 06:03:32;;;;;;;51.28;34.78;;;3.40;99.90;;;;;;5048092;28;20371;-84
2022/03/02 06:05:58;;;;;;;52.33;34.33;;;3.40;99.90;;;;;;5042087;28;20048;-81
2022/03/02 06:08:23;;;;;;;49.53;33.53;;;3.30;99.90;;;;;;5044675;28;20044;-82
2022/03/02 06:10:49;;;;;;;49.17;33.03;;;3.30;99.90;;;;;;5052817;28;20048;-82
2022/03/02 06:13:15;;;;;;;50.72;34.45;;;3.20;99.90;;;;;;5051404;28;20045;-82
2022/03/02 06:15:42;;;;;;;48.90;34.25;;;3.20;99.90;;;;;;5051753;28;20106;-82
2022/03/02 06:18:08;;;;;;;49.30;33.38;;;3.10;99.90;;;;;;5039530;28;20506;-82
2022/03/02 06:20:34;;;;;;;48.47;32.72;;;3.10;99.90;;;;;;5032562;28;20493;-82
2022/03/02 06:23:00;;;;;;;47.45;33.13;;;3.10;99.90;;;;;;5047568;28;20077;-83
2022/03/02 06:25:26;;;;;;;47.78;32.85;;;3.10;99.90;;;;;;5039199;28;20493;-82
2022/03/02 06:27:52;;;;;;;47.50;33.25;;;3.10;99.90;;;;;;5015535;28;20049;-82
2022/03/02 06:30:17;;;;;;;47.28;32.75;;;3.10;99.90;;;;;;5050894;28;20600;-82
2022/03/02 06:32:43;;;;;;;48.60;33.20;;;3.10;99.90;;;;;;5052637;28;20045;-82
2022/03/02 06:35:09;;;;;;;48.30;32.28;;;3.00;99.90;;;;;;5035375;28;20118;-82
2022/03/02 06:37:34;;;;;;;50.30;33.78;;;3.10;99.90;;;;;;5051914;28;20177;-81
2022/03/02 06:40:06;;;;;;;49.35;32.53;;;3.00;99.90;;;;;;5035373;28;20053;-83
2022/03/02 06:42:34;;;;;;;51.97;34.47;;;3.00;99.90;;;;;;5051916;28;20045;-82
2022/03/02 06:45:04;;;;;;;49.95;34.70;;;3.00;99.90;;;;;;5052965;28;20452;-81
2022/03/02 06:47:32;;;;;;;47.25;33.25;;;3.00;99.90;;;;;;5053351;28;20048;-81
2022/03/02 06:50:08;;;;;;;51.45;33.35;;;3.00;99.90;;;;;;5051750;28;20052;-81
2022/03/02 06:52:41;;;;;;;48.17;32.28;;;3.00;99.90;;;;;;5053372;28;20056;-81
2022/03/02 06:55:11;;;;;;;47.25;32.15;;;2.90;99.90;;;;;;5069380;28;20049;-82
2022/03/02 06:57:36;;;;;;;52.45;33.45;;;3.00;99.90;;;;;;5054109;28;20052;-80
2022/03/02 07:00:16;;;;;;;48.20;33.08;;;3.00;99.90;;;;;;5070984;28;20033;-82
2022/03/02 07:02:49;;;;;;;46.25;31.85;;;3.00;99.90;;;;;;5077001;28;20025;-82
2022/03/02 07:05:15;;;;;;;48.53;32.65;;;3.00;99.90;;;;;;5077148;28;20053;-82
2022/03/02 07:07:41;;;;;;;50.60;33.55;;;3.00;99.90;;;;;;5060033;28;20096;-79
2022/03/02 07:10:08;;;;;;;51.13;33.95;;;3.10;99.90;;;;;;5053653;28;20088;-82
2022/03/02 07:12:33;;;;;;;51.70;33.17;;;3.10;99.90;;;;;;5051716;28;20594;-82
2022/03/02 07:14:59;;;;;;;49.25;33.22;;;3.10;99.90;;;;;;5052803;28;20127;-82
2022/03/02 07:17:26;;;;;;;46.15;31.85;;;3.10;99.90;;;;;;5050959;28;20524;-82
2022/03/02 07:19:52;;;;;;;48.17;33.35;;;3.10;99.90;;;;;;5051689;28;20127;-82
2022/03/02 07:22:21;;;;;;;50.47;33.60;;;3.10;99.90;;;;;;5051267;28;20060;-82
2022/03/02 07:24:54;;;;;;;47.72;33.58;;;3.20;99.90;;;;;;5051572;28;20045;-82
2022/03/02 07:27:20;;;;;;;48.67;32.95;;;3.20;99.90;;;;;;5052614;28;20131;-82
2022/03/02 07:29:50;;;;;;;48.63;32.78;;;3.20;99.90;;;;;;5051438;28;20049;-82
2022/03/02 07:32:21;;;;;;;47.88;32.78;;;3.20;99.90;;;;;;5050973;28;20049;-81
2022/03/02 07:34:46;;;;;;;;;;;3.30;99.90;;;;;;5053178;28;20049;-82
2022/03/02 07:37:12;;;;;;;45.70;31.35;;;3.30;99.90;;;;;;5034754;28;19928;-82
2022/03/02 07:39:38;;;;;;;46.75;32.47;;;3.30;99.90;;;;;;5051394;28;20037;-82
2022/03/02 07:42:04;;;;;;;46.35;31.65;;;3.40;99.90;;;;;;5038284;28;20049;-82
2022/03/02 07:44:29;;;;;;;48.95;33.42;;;3.40;99.90;;;;;;5055215;28;20045;-83
2022/03/02 07:46:55;;;;;;;47.85;33.75;;;3.30;99.90;;;;;;5055202;28;20056;-83
2022/03/02 07:49:21;;;;;;;47.85;32.58;;;3.40;99.90;;;;;;5054499;28;20060;-83
2022/03/02 07:51:47;;;;;;;47.72;32.42;;;3.50;99.90;;;;;;5056942;28;20090;-81
2022/03/02 07:54:13;;;;;;;50.05;32.47;;;3.50;99.90;;;;;;5055248;28;20382;-83
2022/03/02 07:56:38;;;;;;;44.28;31.58;;;3.60;99.90;;;;;;5038981;28;20047;-82
2022/03/02 07:59:05;;;;;;;46.15;31.88;;;3.60;99.90;;;;;;5022451;28;20075;-82
2022/03/02 08:01:35;;;;;;;46.85;32.15;;;3.60;99.90;;;;;;5054745;28;20049;-82
2022/03/02 08:04:05;;;;;;;46.88;33.22;;;3.60;99.90;;;;;;5038515;28;20055;-82
2022/03/02 08:06:33;;;;;;;45.92;31.98;;;3.70;99.90;;;;;;5055586;28;21050;-88
2022/03/02 08:08:59;;;;;;;42.75;30.98;;;3.70;99.90;;;;;;5054783;28;20056;-81
2022/03/02 08:11:25;;;;;;;47.28;32.33;;;3.80;99.90;;;;;;5037863;28;20060;-81
2022/03/02 08:13:50;;;;;;;49.17;32.58;;;3.70;99.90;;;;;;5054792;28;20041;-81
2022/03/02 08:16:16;;;;;;;46.40;32.42;;;3.80;99.90;;;;;;5055211;28;20564;-82
2022/03/02 08:18:42;;;;;;;48.38;33.50;;;3.90;99.90;;;;;;5056167;28;20132;-82
2022/03/02 08:21:07;;;;;;;44.90;31.42;;;3.80;99.90;;;;;;5055136;28;20049;-82
2022/03/02 08:23:37;;;;;;;46.33;32.15;;;3.90;99.90;;;;;;5055340;28;20370;-81
2022/03/02 08:26:03;;;;;;;44.88;31.98;;;3.90;99.90;;;;;;5055688;28;20049;-81
2022/03/02 08:28:29;;;;;;;44.60;31.33;;;3.90;99.90;;;;;;5040076;28;20048;-83
2022/03/02 08:30:54;;;;;;;47.25;32.50;;;3.90;99.90;;;;;;5076270;28;20051;-84
2022/03/02 08:33:25;;;;;;;46.28;32.20;;;4.00;99.90;;;;;;5079389;28;20040;-83
2022/03/02 08:35:51;;;;;;;44.15;31.30;;;4.10;99.90;;;;;;5079750;28;20084;-82
2022/03/02 08:38:16;;;;;;;43.47;30.92;;;4.00;99.90;;;;;;5079428;28;20047;-83
2022/03/02 08:40:43;;;;;;;45.25;31.80;;;4.10;99.90;;;;;;5063005;28;20059;-81
2022/03/02 08:43:08;;;;;;;45.60;30.98;;;4.10;99.90;;;;;;5075251;28;20045;-80
2022/03/02 08:45:34;;;;;;;41.10;30.30;;;4.10;99.90;;;;;;5037495;28;20393;-81
2022/03/02 08:48:01;;;;;;;41.70;30.45;;;4.20;99.90;;;;;;5055835;28;20041;-81
2022/03/02 08:50:27;;;;;;;44.22;31.05;;;4.20;99.90;;;;;;5053703;28;20045;-82
2022/03/02 08:52:54;;;;;;;46.78;31.63;;;4.30;99.90;;;;;;5053972;28;20505;-81
2022/03/02 08:55:20;;;;;;;42.17;30.88;;;4.30;99.90;;;;;;5037199;28;20045;-80
2022/03/02 08:57:45;;;;;;;43.13;30.52;;;4.40;99.90;;;;;;5037282;28;20045;-81
2022/03/02 09:00:13;;;;;;;43.10;29.45;;;4.40;99.90;;;;;;5037240;28;20126;-81
2022/03/02 09:02:38;;;;;;;43.30;31.27;;;4.40;99.90;;;;;;5053241;28;20489;-81
2022/03/02 09:05:05;;;;;;;45.03;30.73;;;4.50;99.90;;;;;;5037190;28;20045;-81
2022/03/02 09:07:31;;;;;;;42.25;30.88;;;4.50;99.90;;;;;;5037223;28;20048;-81
2022/03/02 09:09:57;;;;;;;41.97;30.02;;;4.60;99.90;;;;;;5037388;28;20075;-81
2022/03/02 09:12:22;;;;;;;43.13;28.27;;;4.60;99.90;;;;;;5054550;28;20420;-82
2022/03/02 09:14:49;;;;;;;38.45;28.98;;;4.60;99.90;;;;;;5053651;28;20048;-81
2022/03/02 09:17:19;;;;;;;41.25;29.42;;;4.70;99.90;;;;;;5053080;28;20065;-81
2022/03/02 09:19:45;;;;;;;39.63;28.02;;;4.70;99.90;;;;;;5054383;28;20497;-81
2022/03/02 09:22:11;;;;;;;43.70;27.67;;;4.80;99.90;;;;;;5054702;28;20385;-81
2022/03/02 09:24:38;;;;;;;39.40;29.50;;;4.90;99.90;;;;;;5036649;28;20041;-81
2022/03/02 09:27:04;;;;;;;42.42;28.77;;;4.90;99.90;;;;;;5053414;28;20068;-82
2022/03/02 09:29:30;;;;;;;38.97;27.40;;;4.90;99.90;;;;;;5020045;28;20473;-82
2022/03/02 09:31:57;;;;;;;36.42;26.80;;;5.00;99.90;;;;;;5053146;28;20075;-82
2022/03/02 09:34:25;;;;;;;39.72;27.38;;;5.00;99.90;;;;;;5053240;28;20059;-82
2022/03/02 09:36:51;;;;;;;40.22;27.67;;;5.10;99.90;;;;;;5054196;28;20045;-82
2022/03/02 09:39:17;;;;;;;38.55;27.77;;;5.20;99.90;;;;;;5054156;28;20048;-82
2022/03/02 09:42:00;;;;;;;36.90;26.90;;;5.20;99.90;;;;;;5036176;28;20556;-82
2022/03/02 09:44:36;;;;;;;38.22;27.60;;;5.30;99.90;;;;;;5052920;28;20049;-83
2022/03/02 09:47:01;;;;;;;36.47;27.48;;;5.30;99.90;;;;;;5053034;28;20049;-82
2022/03/02 09:49:30;;;;;;;38.97;26.80;;;5.30;99.90;;;;;;5052542;28;20052;-83
2022/03/02 09:52:06;;;;;;;37.60;27.50;;;5.40;99.90;;;;;;5036180;28;20132;-82
2022/03/02 09:54:37;;;;;;;37.50;27.48;;;5.50;99.90;;;;;;5053819;28;20401;-82
2022/03/02 09:57:06;;;;;;;36.25;26.10;;;5.50;99.90;;;;;;5052737;28;20070;-82
2022/03/02 09:59:38;;;;;;;44.65;30.55;;;5.60;99.90;;;;;;5051981;28;20052;-82
2022/03/02 10:02:06;;;;;;;37.50;26.42;;;5.60;99.90;;;;;;5052777;28;20084;-82
2022/03/02 10:04:32;;;;;;;39.75;26.40;;;5.70;99.90;;;;;;5051995;28;20052;-82
2022/03/02 10:07:26;;;;;;;38.22;25.83;;;5.70;99.90;;;;;;5052791;28;20080;-82
2022/03/02 10:09:47;;;;;;;36.45;25.70;;;5.70;99.90;;;;;;5051958;28;20497;-82
2022/03/02 10:12:14;;;;;;;34.42;24.75;;;5.80;99.90;;;;;;5053510;28;20044;-82
2022/03/02 10:14:41;;;;;;;33.13;24.63;;;5.90;99.90;;;;;;5053120;28;20041;-81
2022/03/02 10:17:07;;;;;;;34.00;24.38;;;6.00;99.90;;;;;;5052149;28;20049;-82
2022/03/02 10:19:33;;;;;;;35.15;24.48;;;6.00;99.90;;;;;;5035306;28;20182;-82
2022/03/02 10:22:33;;;;;;;33.70;23.95;;;6.10;99.90;;;;;;5052277;28;20045;-82
2022/03/02 10:25:03;;;;;;;32.80;24.40;;;6.10;99.90;;;;;;5052574;28;20056;-81
2022/03/02 10:27:39;;;;;;;30.85;23.48;;;6.20;99.90;;;;;;5052171;28;20283;-81
2022/03/02 10:30:07;;;;;;;30.95;23.90;;;6.40;99.90;;;;;;5052349;28;20442;-81
2022/03/02 10:32:35;;;;;;;31.05;23.20;;;6.30;99.90;;;;;;5052203;28;20048;-82
2022/03/02 10:35:12;;;;;;;28.85;22.10;;;6.30;99.90;;;;;;5053714;28;20045;-80
2022/03/02 10:37:45;;;;;;;32.65;23.73;;;6.40;99.90;;;;;;5044718;28;20056;-82
2022/03/02 10:40:17;;;;;;;31.25;23.52;;;6.50;99.90;;;;;;5055968;28;20056;-82
2022/03/02 10:42:51;;;;;;;35.92;24.83;;;6.50;99.90;;;;;;5073687;28;20076;-82
2022/03/02 10:45:25;;;;;;;29.38;22.70;;;6.60;99.90;;;;;;5071233;28;20048;-83
2022/03/02 10:48:12;;;;;;;30.67;22.55;;;6.70;99.90;;;;;;5077048;28;20067;-82
2022/03/02 10:50:39;;;;;;;32.63;22.58;;;6.70;99.90;;;;;;5077414;28;20037;-83
2022/03/02 10:53:06;;;;;;;31.75;23.23;;;6.70;99.90;;;;;;5060807;28;20053;-82
2022/03/02 10:55:32;;;;;;;30.65;23.33;;;6.80;99.90;;;;;;5067146;28;20092;-82
2022/03/02 10:57:57;;;;;;;29.95;22.35;;;6.80;99.90;;;;;;5051495;28;20431;-83
2022/03/02 11:00:24;;;;;;;30.88;22.63;;;7.00;99.90;;;;;;5035091;28;20037;-82
2022/03/02 11:02:57;;;;;;;31.45;23.13;;;6.90;99.90;;;;;;5052762;28;20052;-83
2022/03/02 11:05:23;;;;;;;30.55;22.80;;;7.00;99.90;;;;;;5052839;28;20087;-82
2022/03/02 11:07:49;;;;;;;31.35;23.02;;;7.00;99.90;;;;;;5051555;28;20052;-83
2022/03/02 11:10:19;;;;;;;29.55;23.17;;;7.10;99.90;;;;;;5018856;28;20055;-83
2022/03/02 11:12:46;;;;;;;;;;;7.10;99.90;;;;;;5052986;28;20048;-83
2022/03/02 11:15:12;;;;;;;30.88;22.88;;;7.10;99.90;;;;;;5035415;28;19925;-83
2022/03/02 11:17:56;;;;;;;28.17;22.30;;;7.20;99.90;;;;;;5056458;28;20398;-83
2022/03/02 11:20:22;;;;;;;29.42;22.50;;;7.30;99.90;;;;;;5055493;28;20507;-83
2022/03/02 11:22:59;;;;;;;31.67;24.20;;;7.30;99.90;;;;;;5055516;28;20053;-83
2022/03/02 11:25:45;;;;;;;32.95;24.33;;;7.40;99.90;;;;;;5057025;28;20132;-83
2022/03/02 11:28:16;;;;;;;31.65;23.73;;;7.50;99.90;;;;;;5057141;28;20045;-83
2022/03/02 11:30:55;;;;;;;31.45;23.42;;;7.50;99.90;;;;;;5038857;28;20106;-82
2022/03/02 11:33:26;;;;;;;29.60;23.38;;;7.50;99.90;;;;;;5023060;28;20041;-81
2022/03/02 11:35:53;;;;;;;31.15;22.75;;;7.60;99.90;;;;;;5055268;28;20053;-82
2022/03/02 11:38:20;;;;;;;29.08;22.73;;;7.60;99.90;;;;;;5056750;28;20126;-82
2022/03/02 11:40:47;;;;;;;36.95;23.83;;;7.60;99.90;;;;;;5055217;28;20076;-82
2022/03/02 11:43:14;;;;;;;29.73;22.95;;;7.70;99.90;;;;;;5055566;28;20460;-82
2022/03/02 11:45:40;;;;;;;27.15;22.65;;;7.70;99.90;;;;;;5055631;28;20045;-82
2022/03/02 11:48:13;;;;;;;33.05;22.58;;;7.90;99.90;;;;;;5056451;28;20045;-82
2022/03/02 11:50:59;;;;;;;29.48;22.38;;;7.80;99.90;;;;;;5055143;28;20103;-82
2022/03/02 11:53:32;;;;;;;29.98;21.35;;;7.90;99.90;;;;;;5055644;28;20048;-82
2022/03/02 11:55:59;;;;;;;29.48;21.27;;;8.00;99.90;;;;;;5055198;28;20053;-82
2022/03/02 11:58:26;;;;;;;27.48;20.73;;;8.00;99.90;;;;;;5056352;28;20056;-82
2022/03/02 12:00:51;;;;;;;26.38;21.02;;;8.00;99.90;;;;;;5056086;28;20124;-83
2022/03/02 12:03:17;;;;;;;31.05;21.63;;;8.10;99.90;;;;;;5055039;28;20524;-82
2022/03/02 12:05:43;;;;;;;30.60;21.63;;;8.10;99.50;;;;;;5055497;28;20049;-83
2022/03/02 12:08:10;;;;;;;29.52;21.05;;;8.20;99.40;;;;;;5038660;28;20049;-83
2022/03/02 12:10:41;;;;;;;27.83;21.05;;;8.20;98.70;;;;;;5038714;28;20053;-83
2022/03/02 12:13:06;;;;;;;26.60;20.92;;;8.30;98.30;;;;;;5055145;28;20045;-83
2022/03/02 12:15:42;;;;;;;28.45;20.80;;;8.30;97.90;;;;;;5054881;28;20094;-83
2022/03/02 12:18:11;;;;;;;25.92;20.05;;;8.40;96.90;;;;;;5054367;28;20068;-83
2022/03/02 12:20:48;;;;;;;27.38;21.15;;;8.40;97.30;;;;;;5055083;28;20167;-82
2022/03/02 12:23:23;;;;;;;25.33;20.88;;;8.40;96.80;;;;;;5056263;28;20091;-83
2022/03/02 12:25:48;;;;;;;26.10;19.50;;;8.50;96.80;;;;;;5054524;28;20484;-82
2022/03/02 12:28:15;;;;;;;25.88;19.73;;;8.50;96.30;;;;;;5054725;28;20045;-84
2022/03/02 12:30:41;;;;;;;26.13;20.02;;;8.50;95.80;;;;;;5055908;28;20043;-82
2022/03/02 12:33:06;;;;;;;26.55;20.27;;;8.50;95.40;;;;;;5037983;28;20044;-82
2022/03/02 12:35:32;;;;;;;25.98;19.65;;;8.60;95.00;;;;;;5055824;28;20441;-82
2022/03/02 12:37:59;;;;;;;30.02;19.92;;;8.60;94.50;;;;;;5054102;28;20500;-82